Maybole, United Kingdom
Current Conditions -  °F | °C
As of 4:50 PM on Friday 21 Nov 2014 (Local Time) from EGPK Reporting Station
Light Rain Light Rain  
Wind Chill: 41°   Ceiling: 500
Heat Index: 46°   Visibility: 5mi
Dew Point: 41°   Wind: 13mph
Humidity: 81%   Direction: 110°ESE
Pressure: 29.88"   Gusts: NA
Location:  55.36°N, 4.68°W
Report Text: EGPK 211650Z 11011KT 8000 -RA BKN005 08/05 Q1012
Loading
Personal Weather Stations






























Interactive Weather Map New forecast layout! Learn more

10-Day Weather Forecast

Advertisements
Track Severe Weather on mobile